createdAt,value
2022-11-24T00:02:43.876Z,981.6
2022-11-24T00:08:03.126Z,981.4
2022-11-24T00:13:21.522Z,981.5
2022-11-24T00:18:50.467Z,981.6
2022-11-24T00:23:59.956Z,981.6
2022-11-24T00:29:18.878Z,981.7
2022-11-24T00:34:37.382Z,981.8
2022-11-24T00:39:56.350Z,981.8
2022-11-24T00:45:16.000Z,981.9
2022-11-24T00:50:35.334Z,981.9
2022-11-24T00:55:54.718Z,981.9
2022-11-24T01:01:14.103Z,981.9
2022-11-24T01:06:33.483Z,982
2022-11-24T01:11:52.765Z,982.1
2022-11-24T01:17:12.297Z,982.1
2022-11-24T01:22:32.011Z,982.2
2022-11-24T01:27:51.749Z,982.4
2022-11-24T01:33:10.322Z,982.4
2022-11-24T01:38:29.442Z,982.5
2022-11-24T01:43:48.259Z,982.4
2022-11-24T01:49:07.077Z,982.5
2022-11-24T01:54:26.044Z,982.6
2022-11-24T01:59:45.013Z,982.6
2022-11-24T02:05:04.025Z,982.7
2022-11-24T02:10:23.622Z,982.7
2022-11-24T02:15:42.981Z,982.6
2022-11-24T02:21:01.821Z,982.7
2022-11-24T02:26:21.959Z,982.8
2022-11-24T02:31:40.842Z,982.7
2022-11-24T02:36:59.022Z,982.8
2022-11-24T02:42:18.079Z,982.7
2022-11-24T02:47:37.691Z,982.8
2022-11-24T02:52:57.379Z,982.8
2022-11-24T02:58:17.138Z,982.9
2022-11-24T03:03:35.941Z,983
2022-11-24T03:08:55.619Z,982.9
2022-11-24T03:15:29.968Z,982.9
2022-11-24T03:19:32.823Z,983
2022-11-24T03:24:51.663Z,983.1
2022-11-24T03:30:11.002Z,983
2022-11-24T03:35:30.042Z,983
2022-11-24T03:40:49.574Z,983.1
2022-11-24T03:46:08.508Z,983.2
2022-11-24T03:51:27.610Z,983.2
2022-11-24T03:56:47.010Z,983.2
2022-11-24T04:02:05.177Z,983.3
2022-11-24T04:07:24.023Z,983.4
2022-11-24T04:12:42.814Z,983.5
2022-11-24T04:18:01.859Z,983.5
2022-11-24T04:23:21.434Z,983.6
2022-11-24T04:28:41.099Z,983.6
2022-11-24T04:34:00.128Z,983.7
2022-11-24T04:39:24.581Z,983.7
2022-11-24T04:44:39.195Z,983.8
2022-11-24T04:49:58.086Z,983.9
2022-11-24T04:55:16.507Z,983.8
2022-11-24T05:00:36.155Z,983.9
2022-11-24T05:05:55.637Z,984
2022-11-24T05:11:15.262Z,984
2022-11-24T05:16:34.570Z,984
2022-11-24T05:21:53.910Z,984.1
2022-11-24T05:27:12.991Z,984
2022-11-24T05:32:32.355Z,984.1
2022-11-24T05:37:51.693Z,984.2
2022-11-24T05:43:10.732Z,984.2
2022-11-24T05:48:30.224Z,984.3
2022-11-24T05:53:49.467Z,984.2
2022-11-24T05:59:10.058Z,984.3
2022-11-24T06:04:28.343Z,984.2
2022-11-24T06:09:47.957Z,984.3
2022-11-24T06:15:07.287Z,984.4
2022-11-24T06:20:31.285Z,984.4
2022-11-24T06:25:50.160Z,984.5
2022-11-24T06:31:03.713Z,984.5
2022-11-24T06:36:22.509Z,984.6
2022-11-24T06:41:41.468Z,984.6
2022-11-24T06:47:00.906Z,984.7
2022-11-24T06:52:20.981Z,984.7
2022-11-24T06:57:40.019Z,984.8
2022-11-24T07:02:58.961Z,984.8
2022-11-24T07:08:18.355Z,984.8
2022-11-24T07:14:52.505Z,984.9
2022-11-24T07:19:09.029Z,984.9
2022-11-24T07:24:17.086Z,984.9
2022-11-24T07:29:36.148Z,984.9
2022-11-24T07:34:54.904Z,984.9
2022-11-24T07:43:27.969Z,985
2022-11-24T07:47:44.517Z,985
2022-11-24T07:56:11.207Z,985.2
2022-11-24T08:01:30.819Z,985.2
2022-11-24T08:06:50.328Z,985.2
2022-11-24T08:13:24.487Z,985.2
2022-11-24T08:22:48.903Z,985.3
2022-11-24T08:31:22.112Z,985.3
2022-11-24T08:38:47.056Z,985.4
2022-11-24T08:44:06.414Z,985.5
2022-11-24T08:49:26.235Z,985.5
2022-11-24T08:54:44.925Z,985.6
2022-11-24T09:00:04.630Z,985.6
2022-11-24T09:05:50.472Z,985.7
2022-11-24T09:13:56.558Z,985.7
2022-11-24T09:18:12.007Z,985.8
2022-11-24T09:21:20.212Z,985.8
2022-11-24T09:27:54.356Z,985.8
2022-11-24T09:32:09.791Z,985.9
2022-11-24T09:37:17.149Z,986
2022-11-24T09:43:51.286Z,986
2022-11-24T09:47:56.262Z,986.1
2022-11-24T09:53:15.964Z,986
2022-11-24T09:58:34.680Z,986.2
2022-11-24T10:03:52.460Z,986.2
2022-11-24T10:09:11.724Z,986.3
2022-11-24T10:14:31.522Z,986.3
2022-11-24T10:19:51.012Z,986.3
2022-11-24T10:25:10.521Z,986.4
2022-11-24T10:30:29.794Z,986.4
2022-11-24T10:35:48.907Z,986.4
2022-11-24T10:41:07.632Z,986.3
2022-11-24T10:46:26.900Z,986.4
2022-11-24T10:51:47.055Z,986.4
2022-11-24T10:57:05.972Z,986.4
2022-11-24T11:02:25.474Z,986.5
2022-11-24T11:07:44.486Z,986.5
2022-11-24T11:13:03.441Z,986.4
2022-11-24T11:18:21.635Z,986.5
2022-11-24T11:23:41.034Z,986.4
2022-11-24T11:34:25.210Z,986.5
2022-11-24T11:39:42.531Z,986.5
2022-11-24T11:44:59.006Z,986.6
2022-11-24T11:50:18.213Z,986.6
2022-11-24T11:55:37.229Z,986.6
2022-11-24T12:00:56.637Z,986.6
2022-11-24T12:06:15.953Z,986.6
2022-11-24T12:11:35.307Z,986.7
2022-11-24T12:16:54.143Z,986.6
2022-11-24T12:22:13.097Z,986.8
2022-11-24T12:27:32.034Z,986.8
2022-11-24T12:32:51.713Z,986.8
2022-11-24T12:38:10.446Z,986.8
2022-11-24T12:43:29.924Z,986.9
2022-11-24T12:48:49.591Z,987
2022-11-24T12:54:09.241Z,987
2022-11-24T12:59:27.631Z,987
2022-11-24T13:04:46.907Z,987.1
2022-11-24T13:10:06.478Z,987.2
2022-11-24T13:15:45.013Z,987.2
2022-11-24T13:20:53.638Z,987.3
2022-11-24T13:26:03.599Z,987.3
2022-11-24T13:31:23.234Z,987.3
2022-11-24T13:36:43.343Z,987.5
2022-11-24T13:42:02.298Z,987.5
2022-11-24T13:47:47.801Z,987.5
2022-11-24T13:53:07.102Z,987.5
2022-11-24T13:58:26.453Z,987.5
2022-11-24T14:04:00.957Z,987.4
2022-11-24T14:09:04.447Z,987.4
2022-11-24T14:14:24.182Z,987.5
2022-11-24T14:19:43.497Z,987.6
2022-11-24T14:26:17.663Z,987.6
2022-11-24T14:30:21.768Z,987.7
2022-11-24T14:35:41.389Z,987.7
2022-11-24T14:41:03.061Z,987.7
2022-11-24T14:46:20.745Z,987.7
2022-11-24T14:51:40.019Z,987.8
2022-11-24T14:56:58.961Z,987.8
2022-11-24T15:02:18.280Z,987.7
2022-11-24T15:07:37.853Z,987.8
2022-11-24T15:12:56.254Z,987.8
2022-11-24T15:18:15.272Z,988
2022-11-24T15:23:34.450Z,988
2022-11-24T15:28:53.693Z,988
2022-11-24T15:34:13.391Z,988.1
2022-11-24T15:39:32.509Z,988.2
2022-11-24T15:44:52.122Z,988.2
2022-11-24T15:50:11.613Z,988.2
2022-11-24T15:55:30.548Z,988.3
2022-11-24T16:00:50.301Z,988.5
2022-11-24T16:06:24.033Z,988.5
2022-11-24T16:11:28.742Z,988.6
2022-11-24T16:16:48.531Z,988.6
2022-11-24T16:22:07.186Z,988.6
2022-11-24T16:27:26.399Z,988.7
2022-11-24T16:32:45.463Z,988.6
2022-11-24T16:38:04.315Z,988.6
2022-11-24T16:43:23.278Z,988.6
2022-11-24T16:48:43.479Z,988.6
2022-11-24T16:54:01.941Z,988.6
2022-11-24T16:59:20.992Z,988.7
2022-11-24T17:04:40.676Z,988.6
2022-11-24T17:09:59.757Z,988.6
2022-11-24T17:15:32.887Z,988.6
2022-11-24T17:20:38.193Z,988.6
2022-11-24T17:25:57.053Z,988.6
2022-11-24T17:31:16.109Z,988.7
2022-11-24T17:36:35.026Z,988.8
2022-11-24T17:41:54.292Z,988.8
2022-11-24T17:47:13.417Z,988.8
2022-11-24T17:52:32.541Z,988.9
2022-11-24T17:57:52.069Z,988.9
2022-11-24T18:03:10.927Z,988.8
2022-11-24T18:08:30.196Z,988.9
2022-11-24T18:13:58.216Z,989
2022-11-24T18:19:09.552Z,988.9
2022-11-24T18:24:28.032Z,989
2022-11-24T18:29:48.966Z,989
2022-11-24T18:35:07.033Z,989
2022-11-24T18:40:26.140Z,989
2022-11-24T18:45:45.510Z,989.1
2022-11-24T18:51:04.473Z,989.2
2022-11-24T18:56:24.021Z,989.2
2022-11-24T19:01:43.587Z,989.2
2022-11-24T19:07:02.517Z,989.2
2022-11-24T19:13:36.704Z,989.2
2022-11-24T19:17:45.147Z,989.2
2022-11-24T19:23:02.264Z,989.1
2022-11-24T19:28:21.389Z,989.1
2022-11-24T19:33:41.069Z,989.1
2022-11-24T19:39:00.779Z,989.2
2022-11-24T19:44:18.567Z,989.1
2022-11-24T19:49:38.164Z,989.1
2022-11-24T19:54:57.263Z,989.1
2022-11-24T20:00:16.156Z,989.2
2022-11-24T20:05:35.182Z,989.1
2022-11-24T20:10:54.610Z,989.1
2022-11-24T20:16:13.978Z,989.2
2022-11-24T20:21:33.205Z,989.2
2022-11-24T20:26:52.627Z,989.2
2022-11-24T20:32:11.935Z,989.2
2022-11-24T20:37:31.549Z,989.2
2022-11-24T20:42:50.937Z,989.2
2022-11-24T20:48:10.212Z,989.2
2022-11-24T20:53:29.136Z,989.2
2022-11-24T20:58:48.616Z,989.3
2022-11-24T21:04:07.593Z,989.2
2022-11-24T21:09:26.935Z,989.4
2022-11-24T21:14:45.745Z,989.3
2022-11-24T21:20:05.415Z,989.2
2022-11-24T21:25:24.925Z,989.1
2022-11-24T21:30:44.750Z,989.1
2022-11-24T21:36:04.622Z,989.1
2022-11-24T21:41:23.524Z,989.2
2022-11-24T21:46:47.989Z,989.1
2022-11-24T21:52:02.918Z,989.2
2022-11-24T21:57:22.301Z,989.2
2022-11-24T22:02:51.474Z,989.2
2022-11-24T22:08:01.184Z,989.1
2022-11-24T22:13:20.871Z,989.2
2022-11-24T22:18:40.246Z,989.1
2022-11-24T22:24:00.000Z,989.2
2022-11-24T22:29:19.142Z,989.2
2022-11-24T22:34:38.950Z,989.1
2022-11-24T22:39:57.825Z,989.2
2022-11-24T22:45:16.766Z,989.2
2022-11-24T22:50:37.242Z,989.3
2022-11-24T22:55:57.002Z,989.3
2022-11-24T23:01:15.978Z,989.3
2022-11-24T23:06:35.207Z,989.4
2022-11-24T23:11:54.985Z,989.4
2022-11-24T23:17:14.725Z,989.3
2022-11-24T23:22:33.525Z,989.4
2022-11-24T23:27:52.407Z,989.3
2022-11-24T23:33:11.518Z,989.3
2022-11-24T23:38:31.257Z,989.3
2022-11-24T23:43:58.673Z,989.3
2022-11-24T23:49:09.844Z,989.3
2022-11-24T23:54:28.833Z,989.3
2022-11-24T23:59:48.282Z,989.3
